Time;durP1;ratioP1;P1;durP2;ratioP2;P2;SDS_P1;SDS_P2;PMS_P1;PMS_P2;Temp;Humidity;BMP_temperature;BMP_pressure;BME280_temperature;BME280_humidity;BME280_pressure;Samples;Min_cycle;Max_cycle;Signal;HPM_P1;HPM_P2
2023/06/12 00:02:08;;;;;;;;;;;;;;;16.66;57.11;100162.13;5056633;28;1371;-58
2023/06/12 00:04:34;;;;;;;;;;;;;;;16.34;57.02;100169.81;5056866;28;1177;-57
2023/06/12 00:07:02;;;;;;;;;;;;;;;16.23;56.70;100160.84;5056529;28;1135;-58
2023/06/12 00:09:27;;;;;;;;;;;;;;;16.16;56.39;100159.50;5050840;28;1024;-58
2023/06/12 00:11:53;;;;;;;;;;;;;;;16.03;56.29;100153.59;5048862;28;1119;-58
2023/06/12 00:14:18;;;;;;;;;;;;;;;16.01;55.70;100155.78;5056248;28;1120;-58
2023/06/12 00:16:44;;;;;;;;;;;;;;;15.94;55.93;100149.81;5055680;28;1906;-58
2023/06/12 00:19:11;;;;;;;;;;;;;;;15.90;55.62;100148.72;5055918;28;1477;-57
2023/06/12 00:21:36;;;;;;;;;;;;;;;15.86;55.72;100153.94;5056241;28;952;-58
2023/06/12 00:24:08;;;;;;;;;;;;;;;15.82;55.43;100160.28;5043038;28;1194;-58
2023/06/12 00:26:37;;;;;;;;;;;;;;;15.98;55.99;100167.31;5056348;28;1147;-56
2023/06/12 00:29:02;;;;;;;;;;;;;;;17.31;56.54;100156.25;5055823;28;1087;-58
2023/06/12 00:31:28;;;;;;;;;;;;;;;16.74;57.40;100167.78;5038398;28;1110;-58
2023/06/12 00:33:54;;;;;;;;;;;;;;;16.45;57.11;100166.97;5055700;28;1171;-58
2023/06/12 00:36:19;;;;;;;;;;;;;;;16.22;57.16;100166.63;5056331;28;1902;-58
2023/06/12 00:38:45;;;;;;;;;;;;;;;16.17;56.72;100174.88;5056229;28;1160;-58
2023/06/12 00:41:10;;;;;;;;;;;;;;;16.12;56.29;100166.66;5056240;28;1135;-58
2023/06/12 00:43:36;;;;;;;;;;;;;;;16.03;56.15;100166.47;5038202;28;1140;-58
2023/06/12 00:46:02;;;;;;;;;;;;;;;15.99;56.26;100173.63;5055438;28;1142;-57
2023/06/12 00:48:28;;;;;;;;;;;;;;;15.94;55.80;100171.75;5021686;28;1319;-58
2023/06/12 00:50:56;;;;;;;;;;;;;;;15.88;55.93;100170.94;5038514;28;1172;-59
2023/06/12 00:53:21;;;;;;;;;;;;;;;15.83;55.89;100170.16;5038269;28;1607;-59
2023/06/12 00:55:47;;;;;;;;;;;;;;;15.82;55.57;100174.00;5055776;28;1898;-59
2023/06/12 00:58:12;;;;;;;;;;;;;;;15.71;55.90;100185.00;5031657;28;1192;-55
2023/06/12 01:00:38;;;;;;;;;;;;;;;15.92;56.11;100182.16;5018580;28;1786;-58
2023/06/12 01:03:05;;;;;;;;;;;;;;;17.21;56.88;100179.16;5055649;28;1127;-58
2023/06/12 01:05:36;;;;;;;;;;;;;;;16.69;57.43;100187.09;5038206;28;1223;-58
2023/06/12 01:08:24;;;;;;;;;;;;;;;16.30;57.68;100196.19;5038422;28;1160;-56
2023/06/12 01:11:00;;;;;;;;;;;;;;;16.20;57.13;100190.75;5051202;28;1091;-56
2023/06/12 01:13:26;;;;;;;;;;;;;;;16.05;56.81;100200.72;5018142;28;1251;-57
2023/06/12 01:15:51;;;;;;;;;;;;;;;16.04;56.28;100196.34;5018330;28;1902;-56
2023/06/12 01:18:17;;;;;;;;;;;;;;;15.99;55.94;100196.41;5030017;28;1190;-58
2023/06/12 01:20:43;;;;;;;;;;;;;;;15.96;56.08;100207.09;5037857;28;1350;-58
2023/06/12 01:23:18;;;;;;;;;;;;;;;15.87;55.80;100207.69;5011350;28;1606;-59
2023/06/12 01:25:46;;;;;;;;;;;;;;;15.86;55.67;100208.78;5053959;28;1056;-59
2023/06/12 01:28:15;;;;;;;;;;;;;;;15.77;55.50;100209.63;5038305;28;1171;-60
2023/06/12 01:31:06;;;;;;;;;;;;;;;15.78;55.37;100205.78;5041455;28;1079;-59
2023/06/12 01:33:37;;;;;;;;;;;;;;;17.13;56.75;100207.28;5033361;28;1263;-59
2023/06/12 01:36:03;;;;;;;;;;;;;;;17.18;57.25;100209.13;5031244;28;1910;-58
2023/06/12 01:38:30;;;;;;;;;;;;;;;16.61;57.53;100215.16;5024381;28;1222;-59
2023/06/12 01:40:57;;;;;;;;;;;;;;;16.43;56.91;100206.50;5041320;28;1200;-58
2023/06/12 01:43:23;;;;;;;;;;;;;;;16.25;56.62;100215.41;5041303;28;1437;-59
2023/06/12 01:45:48;;;;;;;;;;;;;;;16.19;56.34;100222.84;5040553;28;1243;-59
2023/06/12 01:48:16;;;;;;;;;;;;;;;16.12;56.31;100214.13;5027866;28;1616;-58
2023/06/12 01:50:42;;;;;;;;;;;;;;;16.07;56.05;100219.63;5041247;28;1212;-58
2023/06/12 01:53:10;;;;;;;;;;;;;;;16.01;55.67;100226.28;5042356;28;1163;-58
2023/06/12 01:55:36;;;;;;;;;;;;;;;15.92;55.71;100220.53;5031801;28;1906;-57
2023/06/12 01:58:02;;;;;;;;;;;;;;;15.89;55.57;100218.38;5040379;28;1305;-58
2023/06/12 02:01:00;;;;;;;;;;;;;;;15.84;55.69;100232.13;5041388;28;1207;-58
2023/06/12 02:03:26;;;;;;;;;;;;;;;15.81;55.68;100221.69;5040942;28;1269;-58
2023/06/12 02:05:51;;;;;;;;;;;;;;;17.08;56.90;100226.53;5058901;28;1234;-58
2023/06/12 02:08:17;;;;;;;;;;;;;;;16.98;57.29;100221.16;5040685;28;1282;-58
2023/06/12 02:10:43;;;;;;;;;;;;;;;16.51;57.51;100231.69;5056844;28;1219;-58
2023/06/12 02:13:08;;;;;;;;;;;;;;;16.34;56.98;100229.34;5038771;28;1214;-58
2023/06/12 02:15:34;;;;;;;;;;;;;;;16.25;56.57;100232.69;5035030;28;1274;-58
2023/06/12 02:18:00;;;;;;;;;;;;;;;16.17;56.20;100232.47;5040750;28;1993;-58
2023/06/12 02:20:28;;;;;;;;;;;;;;;16.05;56.11;100230.09;5040329;28;1118;-58
2023/06/12 02:22:54;;;;;;;;;;;;;;;16.01;55.93;100235.31;5032197;28;1339;-58
2023/06/12 02:25:20;;;;;;;;;;;;;;;15.92;55.84;100234.25;5035691;28;1131;-58
2023/06/12 02:27:47;;;;;;;;;;;;;;;15.86;55.63;100232.66;5040475;28;1273;-58
2023/06/12 02:30:12;;;;;;;;;;;;;;;15.82;55.54;100239.78;5040027;28;1329;-58
2023/06/12 02:32:39;;;;;;;;;;;;;;;15.81;55.44;100243.63;5049916;28;1039;-58
2023/06/12 02:35:08;;;;;;;;;;;;;;;15.81;55.41;100240.88;5051140;28;1142;-58
2023/06/12 02:37:35;;;;;;;;;;;;;;;15.71;55.75;100242.56;5020293;28;1922;-58
2023/06/12 02:40:00;;;;;;;;;;;;;;;17.00;56.79;100240.91;5021928;28;1120;-58
2023/06/12 02:42:27;;;;;;;;;;;;;;;17.31;56.74;100246.91;5040265;28;1305;-58
2023/06/12 02:44:53;;;;;;;;;;;;;;;16.66;57.42;100252.72;5040060;28;1266;-58
2023/06/12 02:47:20;;;;;;;;;;;;;;;16.42;57.13;100253.44;5030642;28;1466;-59
2023/06/12 02:49:46;;;;;;;;;;;;;;;16.31;56.73;100260.91;5035688;28;1329;-57
2023/06/12 02:52:21;;;;;;;;;;;;;;;16.22;56.39;100255.19;5040089;28;1308;-55
2023/06/12 02:54:46;;;;;;;;;;;;;;;16.14;56.13;100264.03;5039841;28;1297;-57
2023/06/12 02:57:12;;;;;;;;;;;;;;;16.04;55.83;100262.16;5039850;28;1992;-59
2023/06/12 02:59:37;;;;;;;;;;;;;;;15.97;55.88;100264.41;5039391;28;1145;-57
2023/06/12 03:02:10;;;;;;;;;;;;;;;15.93;55.62;100262.50;5028239;28;1428;-58
2023/06/12 03:04:41;;;;;;;;;;;;;;;15.89;55.40;100264.97;5025234;28;1242;-58
2023/06/12 03:07:12;;;;;;;;;;;;;;;15.87;55.42;100265.25;5023267;28;1415;-57
2023/06/12 03:09:38;;;;;;;;;;;;;;;15.81;55.34;100269.13;5039489;28;1293;-58
2023/06/12 03:12:05;;;;;;;;;;;;;;;15.77;55.54;100275.41;5026718;28;1230;-56
2023/06/12 03:14:33;;;;;;;;;;;;;;;16.16;56.26;100272.81;5038648;28;1230;-58
2023/06/12 03:16:59;;;;;;;;;;;;;;;17.41;56.40;100267.97;5039634;28;1906;-59
2023/06/12 03:19:25;;;;;;;;;;;;;;;16.72;57.50;100274.34;5039214;28;1151;-55
2023/06/12 03:21:51;;;;;;;;;;;;;;;16.39;57.32;100276.78;5026530;28;1258;-58
2023/06/12 03:24:17;;;;;;;;;;;;;;;16.22;56.82;100279.09;5031467;28;1191;-58
2023/06/12 03:26:42;;;;;;;;;;;;;;;16.17;56.52;100290.06;5037596;28;1132;-56
2023/06/12 03:29:08;;;;;;;;;;;;;;;16.08;56.25;100290.66;5039327;28;1254;-60
2023/06/12 03:31:34;;;;;;;;;;;;;;;16.01;56.21;100281.13;5038732;28;1197;-59
2023/06/12 03:34:00;;;;;;;;;;;;;;;15.95;55.93;100272.09;5038978;28;1154;-59
2023/06/12 03:36:28;;;;;;;;;;;;;;;15.86;56.02;100280.06;5038191;28;1886;-58
2023/06/12 03:38:55;;;;;;;;;;;;;;;15.84;55.59;100286.97;5056653;28;1246;-58
2023/06/12 03:41:22;;;;;;;;;;;;;;;16.16;56.05;100293.91;5038968;28;1297;-57
2023/06/12 03:43:48;;;;;;;;;;;;;;;17.40;56.46;100297.41;5039391;28;1394;-60
2023/06/12 03:46:14;;;;;;;;;;;;;;;16.72;57.19;100298.25;5038753;28;1736;-56
2023/06/12 03:48:40;;;;;;;;;;;;;;;16.38;57.31;100305.34;5031118;28;1176;-57
2023/06/12 03:51:06;;;;;;;;;;;;;;;16.24;57.13;100307.03;5037240;28;1155;-56
2023/06/12 03:53:31;;;;;;;;;;;;;;;16.20;56.68;100300.47;5035966;28;1506;-60
2023/06/12 03:55:57;;;;;;;;;;;;;;;16.20;56.63;100293.09;5038432;28;1959;-61
2023/06/12 03:58:24;;;;;;;;;;;;;;;16.11;56.52;100297.50;5038610;28;1144;-58
2023/06/12 04:00:51;;;;;;;;;;;;;;;16.00;56.49;100288.50;5037727;28;1268;-62
2023/06/12 04:03:21;;;;;;;;;;;;;;;15.98;56.04;100287.19;5049749;28;1499;-61
2023/06/12 04:05:49;;;;;;;;;;;;;;;15.91;55.95;100293.75;5038295;28;1167;-58
2023/06/12 04:08:14;;;;;;;;;;;;;;;15.89;56.01;100303.38;5038090;28;1225;-64
2023/06/12 04:10:40;;;;;;;;;;;;;;;15.83;56.07;100297.09;5037417;28;906;-58
2023/06/12 04:13:06;;;;;;;;;;;;;;;15.83;55.71;100301.75;5025128;28;1207;-60
2023/06/12 04:15:32;;;;;;;;;;;;;;;15.76;55.67;100301.22;5038375;28;1147;-62
2023/06/12 04:17:58;;;;;;;;;;;;;;;15.74;55.67;100296.00;5038270;28;1985;-62
2023/06/12 04:20:26;;;;;;;;;;;;;;;15.68;55.88;100300.69;5038103;28;1131;-61
2023/06/12 04:22:56;;;;;;;;;;;;;;;16.34;56.57;100301.53;5043875;28;1114;-61
2023/06/12 04:25:23;;;;;;;;;;;;;;;17.45;56.74;100305.56;5038502;28;1117;-63
2023/06/12 04:27:48;;;;;;;;;;;;;;;16.70;57.88;100303.19;5038509;28;1178;-63
2023/06/12 04:30:15;;;;;;;;;;;;;;;16.42;57.46;100309.16;5025135;28;1608;-59
2023/06/12 04:32:41;;;;;;;;;;;;;;;16.27;57.31;100311.16;5038515;28;1343;-59
2023/06/12 04:35:07;;;;;;;;;;;;;;;16.18;56.92;100317.22;5038143;28;1164;-59
2023/06/12 04:37:33;;;;;;;;;;;;;;;16.08;56.51;100326.31;5036875;28;1918;-59
2023/06/12 04:39:58;;;;;;;;;;;;;;;16.01;56.41;100325.81;5056372;28;1059;-58
2023/06/12 04:42:25;;;;;;;;;;;;;;;15.96;56.44;100328.56;5056393;28;1204;-61
2023/06/12 04:44:51;;;;;;;;;;;;;;;15.91;56.15;100328.59;5038305;28;1123;-62
2023/06/12 04:47:17;;;;;;;;;;;;;;;15.95;55.74;100334.31;5038085;28;1299;-62
2023/06/12 04:49:45;;;;;;;;;;;;;;;15.87;55.85;100324.78;5038149;28;1199;-63
2023/06/12 04:52:12;;;;;;;;;;;;;;;15.79;55.87;100323.41;5037968;28;1218;-60
2023/06/12 04:54:41;;;;;;;;;;;;;;;15.77;55.89;100322.84;5037675;28;1088;-59
2023/06/12 04:57:08;;;;;;;;;;;;;;;17.16;56.15;100329.50;5038269;28;1906;-61
2023/06/12 04:59:37;;;;;;;;;;;;;;;16.68;55.51;100328.19;5037719;28;1163;-64
2023/06/12 05:02:03;;;;;;;;;;;;;;;16.23;54.09;100316.41;5037637;28;1417;-58
2023/06/12 05:04:30;;;;;;;;;;;;;;;16.10;52.28;100328.78;5058658;28;1140;-60
2023/06/12 05:06:56;;;;;;;;;;;;;;;16.98;55.22;100329.09;5042192;28;1235;-59
2023/06/12 05:09:22;;;;;;;;;;;;;;;16.45;53.54;100329.69;5041042;28;2097;-60
2023/06/12 05:11:48;;;;;;;;;;;;;;;16.29;51.90;100328.97;5041617;28;1144;-56
2023/06/12 05:14:13;;;;;;;;;;;;;;;16.48;52.31;100329.16;5041771;28;1202;-58
2023/06/12 05:16:39;;;;;;;;;;;;;;;16.73;53.27;100352.03;5041021;28;1905;-56
2023/06/12 05:19:06;;;;;;;;;;;;;;;16.46;51.81;100342.31;5041432;28;1623;-56
2023/06/12 05:21:33;;;;;;;;;;;;;;;17.73;53.25;100347.06;5041580;28;1115;-56
2023/06/12 05:23:59;;;;;;;;;;;;;;;16.92;53.09;100343.97;5041324;28;1115;-58
2023/06/12 05:26:25;;;;;;;;;;;;;;;16.73;51.52;100354.78;5041546;28;1351;-58
2023/06/12 05:28:52;;;;;;;;;;;;;;;16.55;50.66;100346.13;5040796;28;1289;-58
2023/06/12 05:31:18;;;;;;;;;;;;;;;16.45;49.75;100345.34;5040844;28;1231;-59
2023/06/12 05:33:44;;;;;;;;;;;;;;;16.63;50.39;100344.69;5041399;28;1202;-58
2023/06/12 05:36:10;;;;;;;;;;;;;;;16.87;51.10;100346.72;5040890;28;1965;-58
2023/06/12 05:38:37;;;;;;;;;;;;;;;16.60;50.61;100348.00;5041192;28;1338;-60
2023/06/12 05:41:03;;;;;;;;;;;;;;;16.49;49.59;100349.16;5030869;28;1312;-58
2023/06/12 05:43:28;;;;;;;;;;;;;;;16.45;48.82;100348.91;5038248;28;1109;-58
2023/06/12 05:45:55;;;;;;;;;;;;;;;16.33;48.49;100349.25;5040964;28;1126;-58
2023/06/12 05:48:20;;;;;;;;;;;;;;;16.37;48.15;100347.59;5058765;28;1214;-58
2023/06/12 05:50:46;;;;;;;;;;;;;;;17.14;49.36;100342.69;5058641;28;1107;-57
2023/06/12 05:53:12;;;;;;;;;;;;;;;16.83;50.31;100345.66;5058590;28;1158;-58
2023/06/12 05:55:37;;;;;;;;;;;;;;;16.63;49.34;100341.94;5040984;28;1147;-56
2023/06/12 05:58:03;;;;;;;;;;;;;;;16.58;48.45;100339.25;5040586;28;1915;-57
2023/06/12 06:00:30;;;;;;;;;;;;;;;16.37;48.51;100333.88;5022759;28;1533;-57
2023/06/12 06:03:00;;;;;;;;;;;;;;;16.36;48.21;100340.47;5039106;28;1272;-58
2023/06/12 06:05:30;;;;;;;;;;;;;;;16.34;47.53;100334.44;5040862;28;1227;-56
2023/06/12 06:07:59;;;;;;;;;;;;;;;16.40;47.04;100333.31;5040830;28;1151;-60
2023/06/12 06:10:26;;;;;;;;;;;;;;;16.35;47.05;100329.75;5040780;28;1143;-58
2023/06/12 06:12:53;;;;;;;;;;;;;;;16.83;48.21;100340.16;5040050;28;2026;-63
2023/06/12 06:15:19;;;;;;;;;;;;;;;16.77;49.32;100340.22;5026488;28;1263;-58
2023/06/12 06:17:45;;;;;;;;;;;;;;;17.30;50.06;100333.22;5040458;28;1993;-62
2023/06/12 06:20:11;;;;;;;;;;;;;;;18.13;50.92;100342.25;5058214;28;1583;-61
2023/06/12 06:22:37;;;;;;;;;;;;;;;17.15;51.56;100333.34;5058366;28;1148;-61
2023/06/12 06:25:03;;;;;;;;;;;;;;;16.99;50.26;100338.97;5040378;28;1287;-61
2023/06/12 06:27:29;;;;;;;;;;;;;;;16.86;49.61;100336.88;5056686;28;1302;-61
2023/06/12 06:29:55;;;;;;;;;;;;;;;16.82;48.48;100336.59;5040074;28;1322;-61
2023/06/12 06:32:21;;;;;;;;;;;;;;;16.79;48.01;100339.94;5040270;28;1124;-61
2023/06/12 06:34:47;;;;;;;;;;;;;;;16.71;47.76;100346.81;5028359;28;1321;-60
2023/06/12 06:37:12;;;;;;;;;;;;;;;16.59;47.47;100344.44;5057736;28;1901;-61
2023/06/12 06:39:39;;;;;;;;;;;;;;;16.55;47.11;100356.25;5040264;28;1108;-61
2023/06/12 06:42:05;;;;;;;;;;;;;;;17.33;49.02;100357.34;5040018;28;1179;-59
2023/06/12 06:44:43;;;;;;;;;;;;;;;16.94;49.43;100358.22;5040156;28;1248;-62
2023/06/12 06:47:10;;;;;;;;;;;;;;;16.82;49.00;100360.50;5040172;28;1103;-57
2023/06/12 06:49:35;;;;;;;;;;;;;;;16.72;48.25;100355.91;5036378;28;1295;-62
2023/06/12 06:52:02;;;;;;;;;;;;;;;16.55;47.85;100361.75;5039875;28;1478;-60
2023/06/12 06:54:27;;;;;;;;;;;;;;;16.71;47.10;100368.00;5061296;28;1090;-58
2023/06/12 06:56:53;;;;;;;;;;;;;;;16.59;47.09;100368.31;5039769;28;1923;-64
2023/06/12 06:59:18;;;;;;;;;;;;;;;17.06;46.05;100372.44;5053510;28;1426;-61
2023/06/12 07:01:44;;;;;;;;;;;;;;;18.61;46.24;100374.34;5057078;28;1271;-61
2023/06/12 07:04:11;;;;;;;;;;;;;;;17.48;49.26;100378.41;5039899;28;1131;-59
2023/06/12 07:06:37;;;;;;;;;;;;;;;17.18;49.06;100379.47;5039867;28;1151;-58
2023/06/12 07:09:02;;;;;;;;;;;;;;;17.05;48.26;100378.22;5039421;28;1162;-59
2023/06/12 07:11:28;;;;;;;;;;;;;;;17.05;47.53;100384.50;5057137;28;1148;-60
2023/06/12 07:13:53;;;;;;;;;;;;;;;16.80;47.67;100374.50;5053201;28;1222;-59
2023/06/12 07:16:19;;;;;;;;;;;;;;;16.76;47.14;100379.75;5039324;28;1913;-59
2023/06/12 07:18:46;;;;;;;;;;;;;;;16.73;47.08;100379.50;5038902;28;1345;-60
2023/06/12 07:21:14;;;;;;;;;;;;;;;16.65;46.96;100380.94;5039482;28;1351;-58
2023/06/12 07:23:40;;;;;;;;;;;;;;;16.70;46.64;100385.56;5057559;28;1126;-61
2023/06/12 07:26:05;;;;;;;;;;;;;;;16.72;46.35;100389.66;5056687;28;973;-59
2023/06/12 07:28:31;;;;;;;;;;;;;;;18.88;42.29;100381.16;5030638;28;1542;-61
2023/06/12 07:30:56;;;;;;;;;;;;;;;17.80;48.00;100382.47;5037484;28;1131;-59
2023/06/12 07:33:22;;;;;;;;;;;;;;;17.35;48.10;100387.28;5036398;28;1521;-59
2023/06/12 07:35:47;;;;;;;;;;;;;;;17.17;47.52;100394.34;5039083;28;1179;-58
2023/06/12 07:38:13;;;;;;;;;;;;;;;17.15;47.08;100391.03;5056740;28;1985;-65
2023/06/12 07:40:39;;;;;;;;;;;;;;;17.04;46.69;100395.78;5056755;28;1024;-63
2023/06/12 07:43:05;;;;;;;;;;;;;;;17.00;46.70;100392.81;5039203;28;1181;-63
2023/06/12 07:45:31;;;;;;;;;;;;;;;16.94;46.44;100393.94;5039146;28;1236;-61
2023/06/12 07:47:57;;;;;;;;;;;;;;;16.83;46.28;100395.06;5038803;28;1142;-63
2023/06/12 07:50:27;;;;;;;;;;;;;;;16.87;46.14;100401.66;5036190;28;1166;-59
2023/06/12 07:52:53;;;;;;;;;;;;;;;16.84;46.17;100394.78;5038618;28;1458;-62
2023/06/12 07:55:20;;;;;;;;;;;;;;;16.73;46.20;100395.97;5037990;28;1259;-61
2023/06/12 07:57:47;;;;;;;;;;;;;;;16.67;46.04;100406.16;5032174;28;1981;-63
2023/06/12 08:00:13;;;;;;;;;;;;;;;16.76;45.66;100401.72;5037540;28;1171;-65
2023/06/12 08:02:46;;;;;;;;;;;;;;;16.74;45.53;100401.16;5055650;28;1136;-67
2023/06/12 08:05:12;;;;;;;;;;;;;;;16.71;45.87;100403.69;5037884;28;1192;-64
2023/06/12 08:07:37;;;;;;;;;;;;;;;16.59;45.58;100396.59;5053586;28;1274;-63
2023/06/12 08:10:04;;;;;;;;;;;;;;;16.62;45.71;100400.72;5051187;28;1357;-62
2023/06/12 08:12:30;;;;;;;;;;;;;;;17.58;47.55;100402.22;5032775;28;1242;-62
2023/06/12 08:14:55;;;;;;;;;;;;;;;16.99;48.21;100395.84;5024505;28;1347;-61
2023/06/12 08:17:21;;;;;;;;;;;;;;;16.87;47.41;100391.50;5044539;28;1987;-61
2023/06/12 08:19:47;;;;;;;;;;;;;;;16.82;47.02;100394.28;5025593;28;1295;-63
2023/06/12 08:22:15;;;;;;;;;;;;;;;16.73;46.80;100396.81;5030154;28;1305;-64
2023/06/12 08:24:43;;;;;;;;;;;;;;;16.75;46.43;100402.81;5030839;28;1212;-63
2023/06/12 08:27:10;;;;;;;;;;;;;;;16.70;46.50;100397.34;5047014;28;1067;-64
2023/06/12 08:29:37;;;;;;;;;;;;;;;16.61;46.26;100393.56;5034209;28;1143;-61
2023/06/12 08:32:03;;;;;;;;;;;;;;;17.51;47.38;100393.50;5037819;28;1319;-61
2023/06/12 08:34:29;;;;;;;;;;;;;;;16.94;47.77;100396.69;5038228;28;1154;-61
2023/06/12 08:36:56;;;;;;;;;;;;;;;16.75;47.76;100397.31;5036917;28;1918;-60
2023/06/12 08:39:21;;;;;;;;;;;;;;;16.82;46.83;100404.44;5029532;28;1107;-60
2023/06/12 08:42:07;;;;;;;;;;;;;;;16.74;46.52;100395.69;5034650;28;1263;-59
2023/06/12 08:44:33;;;;;;;;;;;;;;;16.66;46.41;100385.31;5050559;28;2055;-59
2023/06/12 08:46:59;;;;;;;;;;;;;;;16.74;46.03;100386.63;5058908;28;1019;-59
2023/06/12 08:49:25;;;;;;;;;;;;;;;16.68;46.22;100390.53;5059497;28;1195;-59
2023/06/12 08:51:50;;;;;;;;;;;;;;;16.72;46.00;100386.09;5042215;28;1309;-59
2023/06/12 08:54:16;;;;;;;;;;;;;;;16.56;45.99;100386.19;5042163;28;1294;-59
2023/06/12 08:56:45;;;;;;;;;;;;;;;16.60;45.98;100387.25;5059706;28;1907;-59
2023/06/12 08:59:10;;;;;;;;;;;;;;;16.52;46.22;100393.34;5059558;28;1215;-59
2023/06/12 09:01:36;;;;;;;;;;;;;;;16.54;46.07;100393.88;5049624;28;1211;-59
2023/06/12 09:04:03;;;;;;;;;;;;;;;17.26;47.36;100400.84;5059068;28;1168;-59
2023/06/12 09:06:29;;;;;;;;;;;;;;;16.95;48.28;100403.81;5059864;28;1199;-59
2023/06/12 09:08:55;;;;;;;;;;;;;;;16.83;47.57;100397.81;5059280;28;925;-59
2023/06/12 09:11:20;;;;;;;;;;;;;;;16.73;47.45;100399.56;5059346;28;1131;-59
2023/06/12 09:13:46;;;;;;;;;;;;;;;16.67;46.93;100397.91;5055112;28;1226;-60
2023/06/12 09:16:12;;;;;;;;;;;;;;;16.64;46.77;100395.75;5029372;28;1984;-60
2023/06/12 09:18:50;;;;;;;;;;;;;;;16.68;46.44;100401.50;5059091;28;1077;-60
2023/06/12 09:21:16;;;;;;;;;;;;;;;16.63;46.10;100396.03;5059433;28;1332;-62
2023/06/12 09:23:45;;;;;;;;;;;;;;;17.31;47.36;100395.31;5055791;28;1544;-60
2023/06/12 09:26:15;;;;;;;;;;;;;;;17.00;47.38;100390.06;5052726;28;1033;-62
2023/06/12 09:28:41;;;;;;;;;;;;;;;16.86;47.03;100389.03;5059494;28;1130;-59
2023/06/12 09:31:07;;;;;;;;;;;;;;;16.75;46.84;100391.84;5059063;28;1083;-61
2023/06/12 09:33:32;;;;;;;;;;;;;;;16.73;46.47;100380.31;5056903;28;1540;-63
2023/06/12 09:35:58;;;;;;;;;;;;;;;16.57;46.48;100382.31;5056853;28;1902;-60
2023/06/12 09:38:30;;;;;;;;;;;;;;;16.66;45.92;100379.00;5041076;28;1104;-64
2023/06/12 09:40:56;;;;;;;;;;;;;;;16.61;45.95;100379.84;5059230;28;1071;-64
2023/06/12 09:43:23;;;;;;;;;;;;;;;16.62;45.88;100383.41;5040342;28;1144;-63
2023/06/12 09:45:49;;;;;;;;;;;;;;;16.50;46.11;100372.78;5034001;28;1168;-62
2023/06/12 09:48:14;;;;;;;;;;;;;;;16.62;46.04;100378.75;5045462;28;1436;-62
2023/06/12 09:50:40;;;;;;;;;;;;;;;16.54;46.00;100371.13;5057135;28;882;-59
2023/06/12 09:53:06;;;;;;;;;;;;;;;16.62;45.69;100372.41;5058354;28;1091;-66
2023/06/12 09:55:31;;;;;;;;;;;;;;;16.39;46.03;100378.31;5040191;28;1055;-65
2023/06/12 09:57:58;;;;;;;;;;;;;;;16.43;45.96;100379.38;5057662;28;1914;-60
2023/06/12 10:00:24;;;;;;;;;;;;;;;17.40;46.97;100381.75;5038760;28;1070;-63
2023/06/12 10:03:00;;;;;;;;;;;;;;;16.88;47.68;100386.81;5034975;28;1103;-61
2023/06/12 10:05:35;;;;;;;;;;;;;;;16.79;47.29;100388.50;5029556;28;1199;-61
2023/06/12 10:08:00;;;;;;;;;;;;;;;16.69;46.97;100383.91;5058657;28;1112;-60
2023/06/12 10:10:26;;;;;;;;;;;;;;;16.62;46.53;100377.91;5055046;28;1271;-61
2023/06/12 10:12:52;;;;;;;;;;;;;;;16.64;46.22;100370.22;5049041;28;1064;-62
2023/06/12 10:15:17;;;;;;;;;;;;;;;16.72;46.33;100375.94;5047705;28;1306;-63
2023/06/12 10:17:43;;;;;;;;;;;;;;;17.41;47.55;100377.91;5058438;28;1902;-62
2023/06/12 10:20:10;;;;;;;;;;;;;;;16.87;47.99;100379.69;5058419;28;1056;-63
2023/06/12 10:22:36;;;;;;;;;;;;;;;16.99;47.69;100379.38;5057995;28;1048;-65
2023/06/12 10:25:02;;;;;;;;;;;;;;;16.82;47.12;100382.47;5057928;28;1179;-63
2023/06/12 10:27:28;;;;;;;;;;;;;;;16.82;47.40;100376.97;5040365;28;883;-60
2023/06/12 10:29:57;;;;;;;;;;;;;;;16.74;47.12;100376.47;5057714;28;1080;-60
2023/06/12 10:32:22;;;;;;;;;;;;;;;16.81;47.00;100370.66;5053917;28;1523;-63
2023/06/12 10:34:48;;;;;;;;;;;;;;;16.77;46.39;100364.09;5047941;28;1454;-63
2023/06/12 10:37:21;;;;;;;;;;;;;;;16.63;46.37;100361.16;5034008;28;1905;-62
2023/06/12 10:39:46;;;;;;;;;;;;;;;16.63;46.19;100361.16;5055703;28;1342;-63
2023/06/12 10:42:12;;;;;;;;;;;;;;;16.65;45.96;100356.22;5025981;28;1771;-61
2023/06/12 10:44:44;;;;;;;;;;;;;;;16.62;45.93;100361.44;5056190;28;1115;-62
2023/06/12 10:47:17;;;;;;;;;;;;;;;16.91;46.79;100369.78;5057014;28;1081;-62
2023/06/12 10:50:01;;;;;;;;;;;;;;;17.22;48.39;100369.56;5057338;28;1029;-62
2023/06/12 10:52:26;;;;;;;;;;;;;;;16.91;48.40;100370.63;5058191;28;1152;-62
2023/06/12 10:55:10;;;;;;;;;;;;;;;16.88;47.57;100370.34;5057143;28;1077;-59
2023/06/12 10:57:36;;;;;;;;;;;;;;;16.80;47.00;100368.19;5042823;28;1906;-60
2023/06/12 11:00:04;;;;;;;;;;;;;;;16.73;46.96;100363.84;5039687;28;1045;-61
2023/06/12 11:02:31;;;;;;;;;;;;;;;16.68;46.64;100360.31;5054032;28;1525;-58
2023/06/12 11:04:56;;;;;;;;;;;;;;;16.62;46.63;100365.03;5052180;28;1089;-61
2023/06/12 11:07:22;;;;;;;;;;;;;;;16.68;46.85;100363.88;5039274;28;1093;-64
2023/06/12 11:09:47;;;;;;;;;;;;;;;16.70;46.60;100367.16;5058024;28;1052;-61
2023/06/12 11:12:13;;;;;;;;;;;;;;;17.48;47.63;100366.59;5043996;28;989;-64
2023/06/12 11:14:38;;;;;;;;;;;;;;;17.01;48.45;100361.50;5056854;28;1526;-63
2023/06/12 11:17:04;;;;;;;;;;;;;;;16.91;47.61;100364.31;5056582;28;1897;-60
2023/06/12 11:19:30;;;;;;;;;;;;;;;16.85;47.23;100357.19;5057350;28;1028;-63
2023/06/12 11:21:56;;;;;;;;;;;;;;;16.85;46.78;100354.44;5055976;28;1338;-61
2023/06/12 11:24:22;;;;;;;;;;;;;;;16.78;46.63;100354.75;5051155;28;1377;-62
2023/06/12 11:26:51;;;;;;;;;;;;;;;16.75;46.33;100345.16;5056141;28;1108;-63
2023/06/12 11:29:17;;;;;;;;;;;;;;;16.80;46.29;100348.97;5056491;28;1061;-61
2023/06/12 11:31:49;;;;;;;;;;;;;;;16.66;46.41;100346.88;5041492;28;1028;-61
2023/06/12 11:34:15;;;;;;;;;;;;;;;16.64;46.34;100343.59;5044598;28;1040;-62
2023/06/12 11:36:40;;;;;;;;;;;;;;;16.62;46.27;100345.81;5056712;28;1972;-60
2023/06/12 11:39:16;;;;;;;;;;;;;;;16.58;46.32;100353.78;5056540;28;890;-61
2023/06/12 11:41:42;;;;;;;;;;;;;;;16.49;46.33;100343.69;5056448;28;1140;-60
2023/06/12 11:44:08;;;;;;;;;;;;;;;16.62;46.05;100340.31;5056440;28;1119;-59
2023/06/12 11:46:33;;;;;;;;;;;;;;;17.63;47.38;100347.19;5054236;28;1072;-60
2023/06/12 11:48:59;;;;;;;;;;;;;;;16.96;48.27;100342.31;5056205;28;1234;-62
2023/06/12 11:51:24;;;;;;;;;;;;;;;16.87;47.86;100342.06;5056936;28;1527;-62
2023/06/12 11:53:51;;;;;;;;;;;;;;;16.79;47.15;100337.19;5056233;28;1539;-62
2023/06/12 11:56:16;;;;;;;;;;;;;;;16.70;46.96;100328.72;5052940;28;1969;-59
2023/06/12 11:58:44;;;;;;;;;;;;;;;16.69;46.60;100327.09;5056195;28;1243;-58
2023/06/12 12:01:10;;;;;;;;;;;;;;;16.68;46.34;100328.19;5056478;28;1016;-60
2023/06/12 12:03:37;;;;;;;;;;;;;;;16.73;46.38;100330.91;5056325;28;1028;-59
2023/06/12 12:06:02;;;;;;;;;;;;;;;16.68;46.06;100322.69;5056542;28;1146;-61
2023/06/12 12:08:28;;;;;;;;;;;;;;;16.62;46.21;100323.84;5056409;28;946;-62
2023/06/12 12:10:53;;;;;;;;;;;;;;;16.70;45.75;100328.72;5055828;28;1159;-62
2023/06/12 12:13:19;;;;;;;;;;;;;;;16.63;46.10;100319.16;5038781;28;1171;-64
2023/06/12 12:15:45;;;;;;;;;;;;;;;16.79;46.07;100317.13;5055988;28;1064;-65
2023/06/12 12:18:11;;;;;;;;;;;;;;;17.23;47.91;100316.25;5042595;28;1977;-62
2023/06/12 12:20:37;;;;;;;;;;;;;;;16.97;47.50;100316.47;5055883;28;1120;-64
2023/06/12 12:23:04;;;;;;;;;;;;;;;16.91;47.00;100315.72;5055986;28;1048;-64
2023/06/12 12:25:30;;;;;;;;;;;;;;;16.80;46.77;100311.34;5056121;28;1036;-65
2023/06/12 12:27:56;;;;;;;;;;;;;;;16.72;46.40;100318.28;5054734;28;1366;-65
2023/06/12 12:30:22;;;;;;;;;;;;;;;16.66;46.44;100319.44;5052885;28;1151;-59
2023/06/12 12:32:48;;;;;;;;;;;;;;;16.67;46.24;100315.56;5056056;28;1059;-61
2023/06/12 12:35:14;;;;;;;;;;;;;;;16.70;45.97;100314.97;5053736;28;942;-60
2023/06/12 12:37:40;;;;;;;;;;;;;;;16.69;45.69;100321.59;5055671;28;1902;-58
2023/06/12 12:40:09;;;;;;;;;;;;;;;16.59;45.92;100318.91;5054176;28;1148;-62
2023/06/12 12:42:35;;;;;;;;;;;;;;;16.57;45.80;100316.44;5056119;28;1211;-58
2023/06/12 12:45:00;;;;;;;;;;;;;;;16.63;46.10;100319.97;5055974;28;1296;-63
2023/06/12 12:47:26;;;;;;;;;;;;;;;17.19;47.24;100320.69;5056048;28;1084;-59